sensor_id;sensor_type;location;lat;lon;timestamp;P1;durP1;ratioP1;P2;durP2;ratioP2
53650;SDS011;39552;45.776;15.892;2022-12-29T00:02:14;67.55;;;44.83;;
53650;SDS011;39552;45.776;15.892;2022-12-29T00:04:53;62.13;;;42.50;;
53650;SDS011;39552;45.776;15.892;2022-12-29T00:07:20;62.80;;;42.50;;
53650;SDS011;39552;45.776;15.892;2022-12-29T00:09:49;62.97;;;42.03;;
53650;SDS011;39552;45.776;15.892;2022-12-29T00:12:15;60.70;;;41.95;;
53650;SDS011;39552;45.776;15.892;2022-12-29T00:14:42;59.80;;;41.63;;
53650;SDS011;39552;45.776;15.892;2022-12-29T00:17:09;54.15;;;40.78;;
53650;SDS011;39552;45.776;15.892;2022-12-29T00:19:36;54.42;;;38.60;;
53650;SDS011;39552;45.776;15.892;2022-12-29T00:22:08;51.15;;;36.97;;
53650;SDS011;39552;45.776;15.892;2022-12-29T00:27:54;50.95;;;35.90;;
53650;SDS011;39552;45.776;15.892;2022-12-29T00:30:35;55.22;;;37.00;;
53650;SDS011;39552;45.776;15.892;2022-12-29T00:33:18;56.10;;;39.33;;
53650;SDS011;39552;45.776;15.892;2022-12-29T00:36:03;52.17;;;35.75;;
53650;SDS011;39552;45.776;15.892;2022-12-29T00:38:35;52.58;;;37.25;;
53650;SDS011;39552;45.776;15.892;2022-12-29T00:41:05;56.35;;;38.00;;
53650;SDS011;39552;45.776;15.892;2022-12-29T00:43:33;54.63;;;40.05;;
53650;SDS011;39552;45.776;15.892;2022-12-29T00:46:05;60.28;;;41.95;;
53650;SDS011;39552;45.776;15.892;2022-12-29T00:48:45;63.00;;;42.08;;
53650;SDS011;39552;45.776;15.892;2022-12-29T00:51:15;59.72;;;40.17;;
53650;SDS011;39552;45.776;15.892;2022-12-29T00:53:48;55.55;;;37.85;;
53650;SDS011;39552;45.776;15.892;2022-12-29T00:56:26;54.83;;;38.25;;
53650;SDS011;39552;45.776;15.892;2022-12-29T00:59:10;59.40;;;41.85;;
53650;SDS011;39552;45.776;15.892;2022-12-29T01:04:14;55.80;;;37.83;;
53650;SDS011;39552;45.776;15.892;2022-12-29T01:06:41;49.30;;;33.88;;
53650;SDS011;39552;45.776;15.892;2022-12-29T01:09:08;56.50;;;39.47;;
53650;SDS011;39552;45.776;15.892;2022-12-29T01:11:35;54.60;;;37.67;;
53650;SDS011;39552;45.776;15.892;2022-12-29T01:14:04;49.17;;;37.00;;
53650;SDS011;39552;45.776;15.892;2022-12-29T01:16:38;44.40;;;33.33;;
53650;SDS011;39552;45.776;15.892;2022-12-29T01:19:18;45.90;;;33.88;;
53650;SDS011;39552;45.776;15.892;2022-12-29T01:21:59;40.00;;;30.42;;
53650;SDS011;39552;45.776;15.892;2022-12-29T01:24:26;36.03;;;27.65;;
53650;SDS011;39552;45.776;15.892;2022-12-29T01:26:53;48.60;;;34.50;;
53650;SDS011;39552;45.776;15.892;2022-12-29T01:29:21;58.22;;;39.97;;
53650;SDS011;39552;45.776;15.892;2022-12-29T01:31:48;47.00;;;34.30;;
53650;SDS011;39552;45.776;15.892;2022-12-29T01:34:16;47.40;;;35.80;;
53650;SDS011;39552;45.776;15.892;2022-12-29T01:36:43;48.70;;;35.10;;
53650;SDS011;39552;45.776;15.892;2022-12-29T01:39:10;44.15;;;30.27;;
53650;SDS011;39552;45.776;15.892;2022-12-29T01:41:37;42.08;;;31.33;;
53650;SDS011;39552;45.776;15.892;2022-12-29T01:47:05;174.57;;;43.20;;
53650;SDS011;39552;45.776;15.892;2022-12-29T01:49:34;51.20;;;35.38;;
53650;SDS011;39552;45.776;15.892;2022-12-29T01:52:02;44.53;;;33.20;;
53650;SDS011;39552;45.776;15.892;2022-12-29T01:54:33;45.08;;;32.58;;
53650;SDS011;39552;45.776;15.892;2022-12-29T01:57:05;37.05;;;28.95;;
53650;SDS011;39552;45.776;15.892;2022-12-29T01:59:36;39.72;;;29.67;;
53650;SDS011;39552;45.776;15.892;2022-12-29T02:02:10;38.72;;;28.20;;
53650;SDS011;39552;45.776;15.892;2022-12-29T02:04:39;39.10;;;29.67;;
53650;SDS011;39552;45.776;15.892;2022-12-29T02:07:08;43.15;;;30.27;;
53650;SDS011;39552;45.776;15.892;2022-12-29T02:09:42;39.08;;;28.65;;
53650;SDS011;39552;45.776;15.892;2022-12-29T02:12:12;40.15;;;30.20;;
53650;SDS011;39552;45.776;15.892;2022-12-29T02:14:40;38.47;;;28.55;;
53650;SDS011;39552;45.776;15.892;2022-12-29T02:17:08;37.13;;;27.35;;
53650;SDS011;39552;45.776;15.892;2022-12-29T02:22:50;37.38;;;28.33;;
53650;SDS011;39552;45.776;15.892;2022-12-29T02:25:37;39.53;;;28.08;;
53650;SDS011;39552;45.776;15.892;2022-12-29T02:28:30;42.50;;;28.90;;
53650;SDS011;39552;45.776;15.892;2022-12-29T02:31:17;35.72;;;27.90;;
53650;SDS011;39552;45.776;15.892;2022-12-29T02:33:52;39.20;;;27.90;;
53650;SDS011;39552;45.776;15.892;2022-12-29T02:36:31;36.38;;;28.08;;
53650;SDS011;39552;45.776;15.892;2022-12-29T02:39:06;37.35;;;27.15;;
53650;SDS011;39552;45.776;15.892;2022-12-29T02:41:42;36.38;;;26.90;;
53650;SDS011;39552;45.776;15.892;2022-12-29T02:44:22;37.38;;;26.65;;
53650;SDS011;39552;45.776;15.892;2022-12-29T02:46:56;36.08;;;26.45;;
53650;SDS011;39552;45.776;15.892;2022-12-29T02:49:30;35.13;;;26.48;;
53650;SDS011;39552;45.776;15.892;2022-12-29T02:52:01;33.95;;;24.30;;
53650;SDS011;39552;45.776;15.892;2022-12-29T02:54:30;28.70;;;24.85;;
53650;SDS011;39552;45.776;15.892;2022-12-29T02:56:58;29.85;;;24.05;;
53650;SDS011;39552;45.776;15.892;2022-12-29T02:59:25;30.42;;;24.08;;
53650;SDS011;39552;45.776;15.892;2022-12-29T03:01:59;31.92;;;22.98;;
53650;SDS011;39552;45.776;15.892;2022-12-29T03:04:47;28.23;;;21.88;;
53650;SDS011;39552;45.776;15.892;2022-12-29T03:09:56;34.25;;;22.35;;
53650;SDS011;39552;45.776;15.892;2022-12-29T03:12:32;27.08;;;21.08;;
53650;SDS011;39552;45.776;15.892;2022-12-29T03:15:09;30.92;;;22.67;;
53650;SDS011;39552;45.776;15.892;2022-12-29T03:17:45;25.98;;;21.33;;
53650;SDS011;39552;45.776;15.892;2022-12-29T03:20:18;29.20;;;22.55;;
53650;SDS011;39552;45.776;15.892;2022-12-29T03:22:48;26.88;;;21.25;;
53650;SDS011;39552;45.776;15.892;2022-12-29T03:25:20;25.70;;;20.23;;
53650;SDS011;39552;45.776;15.892;2022-12-29T03:27:51;25.70;;;19.98;;
53650;SDS011;39552;45.776;15.892;2022-12-29T03:30:21;25.27;;;19.38;;
53650;SDS011;39552;45.776;15.892;2022-12-29T03:32:50;26.67;;;19.35;;
53650;SDS011;39552;45.776;15.892;2022-12-29T03:35:22;26.42;;;20.95;;
53650;SDS011;39552;45.776;15.892;2022-12-29T03:37:57;23.13;;;19.15;;
53650;SDS011;39552;45.776;15.892;2022-12-29T03:40:26;22.05;;;18.40;;
53650;SDS011;39552;45.776;15.892;2022-12-29T03:42:55;21.75;;;17.73;;
53650;SDS011;39552;45.776;15.892;2022-12-29T03:45:23;21.80;;;17.13;;
53650;SDS011;39552;45.776;15.892;2022-12-29T03:47:51;26.05;;;18.77;;
53650;SDS011;39552;45.776;15.892;2022-12-29T03:50:19;22.98;;;17.45;;
53650;SDS011;39552;45.776;15.892;2022-12-29T03:52:46;19.30;;;16.70;;
53650;SDS011;39552;45.776;15.892;2022-12-29T03:55:13;21.02;;;17.98;;
53650;SDS011;39552;45.776;15.892;2022-12-29T03:57:40;23.40;;;18.88;;
53650;SDS011;39552;45.776;15.892;2022-12-29T04:00:07;26.23;;;19.80;;
53650;SDS011;39552;45.776;15.892;2022-12-29T04:02:35;26.23;;;19.85;;
53650;SDS011;39552;45.776;15.892;2022-12-29T04:05:04;24.73;;;18.48;;
53650;SDS011;39552;45.776;15.892;2022-12-29T04:07:32;22.67;;;19.13;;
53650;SDS011;39552;45.776;15.892;2022-12-29T04:09:59;25.00;;;19.08;;
53650;SDS011;39552;45.776;15.892;2022-12-29T04:12:26;23.77;;;18.77;;
53650;SDS011;39552;45.776;15.892;2022-12-29T04:14:53;26.50;;;18.63;;
53650;SDS011;39552;45.776;15.892;2022-12-29T04:17:20;25.25;;;18.50;;
53650;SDS011;39552;45.776;15.892;2022-12-29T04:19:47;27.75;;;18.50;;
53650;SDS011;39552;45.776;15.892;2022-12-29T04:22:15;26.58;;;18.48;;
53650;SDS011;39552;45.776;15.892;2022-12-29T04:24:43;22.63;;;18.05;;
53650;SDS011;39552;45.776;15.892;2022-12-29T04:27:10;25.17;;;18.08;;
53650;SDS011;39552;45.776;15.892;2022-12-29T04:29:37;25.30;;;19.73;;
53650;SDS011;39552;45.776;15.892;2022-12-29T04:32:04;25.75;;;19.00;;
53650;SDS011;39552;45.776;15.892;2022-12-29T04:34:31;25.77;;;19.25;;
53650;SDS011;39552;45.776;15.892;2022-12-29T04:36:59;22.13;;;18.10;;
53650;SDS011;39552;45.776;15.892;2022-12-29T04:39:27;22.27;;;18.88;;
53650;SDS011;39552;45.776;15.892;2022-12-29T04:41:54;23.88;;;18.50;;
53650;SDS011;39552;45.776;15.892;2022-12-29T04:44:21;20.92;;;18.15;;
53650;SDS011;39552;45.776;15.892;2022-12-29T04:46:47;22.88;;;18.58;;
53650;SDS011;39552;45.776;15.892;2022-12-29T04:49:14;26.95;;;21.40;;
53650;SDS011;39552;45.776;15.892;2022-12-29T04:51:43;24.67;;;19.65;;
53650;SDS011;39552;45.776;15.892;2022-12-29T04:54:10;24.73;;;17.67;;
53650;SDS011;39552;45.776;15.892;2022-12-29T04:56:38;21.80;;;18.13;;
53650;SDS011;39552;45.776;15.892;2022-12-29T04:59:05;22.48;;;18.42;;
53650;SDS011;39552;45.776;15.892;2022-12-29T05:01:32;22.65;;;17.02;;
53650;SDS011;39552;45.776;15.892;2022-12-29T05:03:59;24.17;;;18.90;;
53650;SDS011;39552;45.776;15.892;2022-12-29T05:06:27;20.58;;;17.70;;
53650;SDS011;39552;45.776;15.892;2022-12-29T05:08:53;19.25;;;16.65;;
53650;SDS011;39552;45.776;15.892;2022-12-29T05:11:20;24.23;;;18.75;;
53650;SDS011;39552;45.776;15.892;2022-12-29T05:13:48;26.45;;;19.85;;
53650;SDS011;39552;45.776;15.892;2022-12-29T05:16:15;38.13;;;21.00;;
53650;SDS011;39552;45.776;15.892;2022-12-29T05:18:42;106.93;;;21.27;;
53650;SDS011;39552;45.776;15.892;2022-12-29T05:21:09;84.72;;;21.50;;
53650;SDS011;39552;45.776;15.892;2022-12-29T05:23:36;23.67;;;19.15;;
53650;SDS011;39552;45.776;15.892;2022-12-29T05:26:03;20.73;;;17.35;;
53650;SDS011;39552;45.776;15.892;2022-12-29T05:28:29;22.38;;;16.73;;
53650;SDS011;39552;45.776;15.892;2022-12-29T05:30:58;18.65;;;16.27;;
53650;SDS011;39552;45.776;15.892;2022-12-29T05:33:25;20.17;;;17.45;;
53650;SDS011;39552;45.776;15.892;2022-12-29T05:35:51;21.30;;;17.25;;
53650;SDS011;39552;45.776;15.892;2022-12-29T05:38:18;21.50;;;17.02;;
53650;SDS011;39552;45.776;15.892;2022-12-29T05:40:45;21.58;;;17.05;;
53650;SDS011;39552;45.776;15.892;2022-12-29T05:43:12;20.83;;;15.88;;
53650;SDS011;39552;45.776;15.892;2022-12-29T05:45:39;20.13;;;16.48;;
53650;SDS011;39552;45.776;15.892;2022-12-29T05:48:07;19.17;;;15.95;;
53650;SDS011;39552;45.776;15.892;2022-12-29T05:50:34;19.15;;;15.77;;
53650;SDS011;39552;45.776;15.892;2022-12-29T05:53:01;20.85;;;17.02;;
53650;SDS011;39552;45.776;15.892;2022-12-29T05:55:28;60.15;;;18.40;;
53650;SDS011;39552;45.776;15.892;2022-12-29T05:57:55;26.33;;;17.05;;
53650;SDS011;39552;45.776;15.892;2022-12-29T06:00:22;20.48;;;17.40;;
53650;SDS011;39552;45.776;15.892;2022-12-29T06:02:49;25.67;;;18.17;;
53650;SDS011;39552;45.776;15.892;2022-12-29T06:05:18;21.48;;;16.95;;
53650;SDS011;39552;45.776;15.892;2022-12-29T06:07:44;28.48;;;17.23;;
53650;SDS011;39552;45.776;15.892;2022-12-29T06:10:11;76.85;;;18.60;;
53650;SDS011;39552;45.776;15.892;2022-12-29T06:12:38;63.03;;;19.45;;
53650;SDS011;39552;45.776;15.892;2022-12-29T06:15:06;34.22;;;17.17;;
53650;SDS011;39552;45.776;15.892;2022-12-29T06:17:33;17.45;;;15.60;;
53650;SDS011;39552;45.776;15.892;2022-12-29T06:20:00;18.27;;;16.05;;
53650;SDS011;39552;45.776;15.892;2022-12-29T06:22:28;19.88;;;15.85;;
53650;SDS011;39552;45.776;15.892;2022-12-29T06:24:55;16.70;;;14.38;;
53650;SDS011;39552;45.776;15.892;2022-12-29T06:27:29;17.02;;;14.30;;
53650;SDS011;39552;45.776;15.892;2022-12-29T06:29:56;20.92;;;15.50;;
53650;SDS011;39552;45.776;15.892;2022-12-29T06:32:23;23.30;;;16.75;;
53650;SDS011;39552;45.776;15.892;2022-12-29T06:34:50;20.00;;;15.20;;
53650;SDS011;39552;45.776;15.892;2022-12-29T06:37:17;19.85;;;15.75;;
53650;SDS011;39552;45.776;15.892;2022-12-29T06:39:45;17.75;;;15.32;;
53650;SDS011;39552;45.776;15.892;2022-12-29T06:42:12;20.73;;;16.77;;
53650;SDS011;39552;45.776;15.892;2022-12-29T06:44:38;20.88;;;15.98;;
53650;SDS011;39552;45.776;15.892;2022-12-29T06:47:05;20.90;;;17.30;;
53650;SDS011;39552;45.776;15.892;2022-12-29T06:49:32;24.17;;;19.80;;
53650;SDS011;39552;45.776;15.892;2022-12-29T06:51:59;32.83;;;23.10;;
53650;SDS011;39552;45.776;15.892;2022-12-29T06:54:26;30.30;;;23.58;;
53650;SDS011;39552;45.776;15.892;2022-12-29T06:56:54;30.70;;;22.88;;
53650;SDS011;39552;45.776;15.892;2022-12-29T06:59:21;35.53;;;25.02;;
53650;SDS011;39552;45.776;15.892;2022-12-29T07:01:47;29.67;;;24.13;;
53650;SDS011;39552;45.776;15.892;2022-12-29T07:04:14;29.92;;;22.50;;
53650;SDS011;39552;45.776;15.892;2022-12-29T07:06:42;34.38;;;24.30;;
53650;SDS011;39552;45.776;15.892;2022-12-29T07:09:09;26.10;;;20.83;;
53650;SDS011;39552;45.776;15.892;2022-12-29T07:11:36;25.73;;;20.52;;
53650;SDS011;39552;45.776;15.892;2022-12-29T07:14:04;22.90;;;19.45;;
53650;SDS011;39552;45.776;15.892;2022-12-29T07:16:31;24.15;;;20.23;;
53650;SDS011;39552;45.776;15.892;2022-12-29T07:18:58;22.50;;;18.73;;
53650;SDS011;39552;45.776;15.892;2022-12-29T07:21:25;25.13;;;19.20;;
53650;SDS011;39552;45.776;15.892;2022-12-29T07:23:53;24.33;;;19.48;;
53650;SDS011;39552;45.776;15.892;2022-12-29T07:26:20;27.17;;;21.48;;
53650;SDS011;39552;45.776;15.892;2022-12-29T07:28:47;31.88;;;25.92;;
53650;SDS011;39552;45.776;15.892;2022-12-29T07:31:17;33.90;;;26.70;;
53650;SDS011;39552;45.776;15.892;2022-12-29T07:33:45;32.35;;;25.35;;
53650;SDS011;39552;45.776;15.892;2022-12-29T07:36:13;31.55;;;24.58;;
53650;SDS011;39552;45.776;15.892;2022-12-29T07:38:40;33.85;;;23.88;;
53650;SDS011;39552;45.776;15.892;2022-12-29T07:41:07;29.58;;;23.52;;
53650;SDS011;39552;45.776;15.892;2022-12-29T07:43:34;35.65;;;26.42;;
53650;SDS011;39552;45.776;15.892;2022-12-29T07:46:01;37.90;;;27.50;;
53650;SDS011;39552;45.776;15.892;2022-12-29T07:48:29;33.42;;;26.63;;
53650;SDS011;39552;45.776;15.892;2022-12-29T07:50:56;34.88;;;26.65;;
53650;SDS011;39552;45.776;15.892;2022-12-29T07:53:23;31.63;;;25.80;;
53650;SDS011;39552;45.776;15.892;2022-12-29T07:55:50;31.02;;;24.83;;
53650;SDS011;39552;45.776;15.892;2022-12-29T07:58:16;30.30;;;24.30;;
53650;SDS011;39552;45.776;15.892;2022-12-29T08:00:43;28.20;;;21.35;;
53650;SDS011;39552;45.776;15.892;2022-12-29T08:03:10;27.45;;;21.40;;
53650;SDS011;39552;45.776;15.892;2022-12-29T08:05:38;27.00;;;20.67;;
53650;SDS011;39552;45.776;15.892;2022-12-29T08:08:05;24.13;;;19.47;;
53650;SDS011;39552;45.776;15.892;2022-12-29T08:10:32;26.20;;;20.27;;
53650;SDS011;39552;45.776;15.892;2022-12-29T08:12:59;28.52;;;22.38;;
53650;SDS011;39552;45.776;15.892;2022-12-29T08:15:25;25.67;;;20.88;;
53650;SDS011;39552;45.776;15.892;2022-12-29T08:17:58;25.85;;;21.02;;
53650;SDS011;39552;45.776;15.892;2022-12-29T08:20:25;24.35;;;19.10;;
53650;SDS011;39552;45.776;15.892;2022-12-29T08:22:53;23.98;;;19.83;;
53650;SDS011;39552;45.776;15.892;2022-12-29T08:25:20;26.10;;;20.63;;
53650;SDS011;39552;45.776;15.892;2022-12-29T08:27:47;24.63;;;20.38;;
53650;SDS011;39552;45.776;15.892;2022-12-29T08:30:14;26.20;;;23.38;;
53650;SDS011;39552;45.776;15.892;2022-12-29T08:32:41;23.58;;;21.05;;
53650;SDS011;39552;45.776;15.892;2022-12-29T08:35:08;25.17;;;20.05;;
53650;SDS011;39552;45.776;15.892;2022-12-29T08:37:35;23.42;;;19.92;;
53650;SDS011;39552;45.776;15.892;2022-12-29T08:40:03;23.73;;;19.05;;
53650;SDS011;39552;45.776;15.892;2022-12-29T08:42:31;23.50;;;20.08;;
53650;SDS011;39552;45.776;15.892;2022-12-29T08:44:58;23.23;;;18.52;;
53650;SDS011;39552;45.776;15.892;2022-12-29T08:47:25;23.60;;;18.35;;
53650;SDS011;39552;45.776;15.892;2022-12-29T08:49:53;22.50;;;17.50;;
53650;SDS011;39552;45.776;15.892;2022-12-29T08:52:23;24.38;;;18.08;;
53650;SDS011;39552;45.776;15.892;2022-12-29T08:55:03;21.23;;;17.90;;
53650;SDS011;39552;45.776;15.892;2022-12-29T08:57:46;22.17;;;17.85;;
53650;SDS011;39552;45.776;15.892;2022-12-29T09:00:13;23.67;;;18.30;;
53650;SDS011;39552;45.776;15.892;2022-12-29T09:02:49;22.55;;;18.00;;
53650;SDS011;39552;45.776;15.892;2022-12-29T09:05:16;21.30;;;17.70;;
53650;SDS011;39552;45.776;15.892;2022-12-29T09:07:43;23.90;;;17.33;;
53650;SDS011;39552;45.776;15.892;2022-12-29T09:10:25;20.33;;;16.27;;
53650;SDS011;39552;45.776;15.892;2022-12-29T09:13:04;19.95;;;17.08;;
53650;SDS011;39552;45.776;15.892;2022-12-29T09:15:43;22.25;;;17.40;;
53650;SDS011;39552;45.776;15.892;2022-12-29T09:18:28;27.77;;;19.85;;
53650;SDS011;39552;45.776;15.892;2022-12-29T09:21:06;53.47;;;33.80;;
53650;SDS011;39552;45.776;15.892;2022-12-29T09:24:08;60.05;;;35.95;;
53650;SDS011;39552;45.776;15.892;2022-12-29T09:26:45;60.88;;;38.75;;
53650;SDS011;39552;45.776;15.892;2022-12-29T09:29:31;53.85;;;34.20;;
53650;SDS011;39552;45.776;15.892;2022-12-29T09:31:59;34.28;;;24.15;;
53650;SDS011;39552;45.776;15.892;2022-12-29T09:37:38;30.52;;;23.75;;
53650;SDS011;39552;45.776;15.892;2022-12-29T09:40:49;31.52;;;24.88;;
53650;SDS011;39552;45.776;15.892;2022-12-29T09:46:43;38.40;;;26.77;;
53650;SDS011;39552;45.776;15.892;2022-12-29T09:49:24;46.75;;;31.90;;
53650;SDS011;39552;45.776;15.892;2022-12-29T09:52:49;41.03;;;26.35;;
53650;SDS011;39552;45.776;15.892;2022-12-29T09:55:41;27.13;;;20.77;;
53650;SDS011;39552;45.776;15.892;2022-12-29T09:58:34;25.95;;;19.27;;
53650;SDS011;39552;45.776;15.892;2022-12-29T10:01:39;24.00;;;19.33;;
53650;SDS011;39552;45.776;15.892;2022-12-29T10:04:34;26.20;;;19.80;;
53650;SDS011;39552;45.776;15.892;2022-12-29T10:07:23;21.45;;;16.75;;
53650;SDS011;39552;45.776;15.892;2022-12-29T10:10:15;13.90;;;11.52;;
53650;SDS011;39552;45.776;15.892;2022-12-29T10:12:57;10.43;;;9.40;;
53650;SDS011;39552;45.776;15.892;2022-12-29T10:15:59;12.63;;;11.20;;
53650;SDS011;39552;45.776;15.892;2022-12-29T10:25:58;17.67;;;13.25;;
53650;SDS011;39552;45.776;15.892;2022-12-29T10:28:47;17.25;;;12.60;;
53650;SDS011;39552;45.776;15.892;2022-12-29T15:11:44;14.43;;;11.45;;
53650;SDS011;39552;45.776;15.892;2022-12-29T15:14:28;18.60;;;13.60;;
53650;SDS011;39552;45.776;15.892;2022-12-29T15:16:58;17.25;;;13.65;;
53650;SDS011;39552;45.776;15.892;2022-12-29T15:19:26;22.05;;;15.45;;
53650;SDS011;39552;45.776;15.892;2022-12-29T15:21:56;22.48;;;18.58;;
53650;SDS011;39552;45.776;15.892;2022-12-29T15:26:52;22.30;;;17.77;;
53650;SDS011;39552;45.776;15.892;2022-12-29T15:29:33;22.88;;;17.33;;
53650;SDS011;39552;45.776;15.892;2022-12-29T15:32:15;19.70;;;16.35;;
53650;SDS011;39552;45.776;15.892;2022-12-29T15:34:45;20.33;;;16.65;;
53650;SDS011;39552;45.776;15.892;2022-12-29T15:37:21;21.50;;;15.18;;
53650;SDS011;39552;45.776;15.892;2022-12-29T15:39:53;16.25;;;13.88;;
53650;SDS011;39552;45.776;15.892;2022-12-29T15:42:39;18.08;;;13.75;;
53650;SDS011;39552;45.776;15.892;2022-12-29T15:45:26;19.73;;;13.68;;
53650;SDS011;39552;45.776;15.892;2022-12-29T15:48:00;17.05;;;13.80;;
53650;SDS011;39552;45.776;15.892;2022-12-29T15:50:31;18.67;;;14.07;;
53650;SDS011;39552;45.776;15.892;2022-12-29T15:55:29;19.55;;;13.77;;
53650;SDS011;39552;45.776;15.892;2022-12-29T15:58:02;17.33;;;13.25;;
53650;SDS011;39552;45.776;15.892;2022-12-29T16:00:32;13.27;;;11.55;;
53650;SDS011;39552;45.776;15.892;2022-12-29T16:03:02;13.70;;;11.75;;
53650;SDS011;39552;45.776;15.892;2022-12-29T16:05:31;13.90;;;11.40;;
53650;SDS011;39552;45.776;15.892;2022-12-29T16:08:19;17.13;;;12.30;;
53650;SDS011;39552;45.776;15.892;2022-12-29T16:10:51;12.10;;;9.57;;
53650;SDS011;39552;45.776;15.892;2022-12-29T16:13:20;12.88;;;11.20;;
53650;SDS011;39552;45.776;15.892;2022-12-29T16:15:55;13.80;;;10.20;;
53650;SDS011;39552;45.776;15.892;2022-12-29T16:18:26;11.68;;;9.95;;
53650;SDS011;39552;45.776;15.892;2022-12-29T16:20:56;15.98;;;10.60;;
53650;SDS011;39552;45.776;15.892;2022-12-29T16:23:24;15.57;;;11.30;;
53650;SDS011;39552;45.776;15.892;2022-12-29T16:25:53;15.73;;;12.35;;
53650;SDS011;39552;45.776;15.892;2022-12-29T16:28:25;18.23;;;12.43;;
53650;SDS011;39552;45.776;15.892;2022-12-29T16:31:02;14.43;;;11.70;;
53650;SDS011;39552;45.776;15.892;2022-12-29T16:36:25;14.95;;;12.05;;
53650;SDS011;39552;45.776;15.892;2022-12-29T16:42:01;15.57;;;11.65;;
53650;SDS011;39552;45.776;15.892;2022-12-29T16:45:04;21.85;;;12.32;;
53650;SDS011;39552;45.776;15.892;2022-12-29T16:48:10;15.52;;;11.18;;
53650;SDS011;39552;45.776;15.892;2022-12-29T16:50:44;14.38;;;10.95;;
53650;SDS011;39552;45.776;15.892;2022-12-29T16:53:20;17.05;;;11.77;;
53650;SDS011;39552;45.776;15.892;2022-12-29T16:55:50;17.98;;;13.95;;
53650;SDS011;39552;45.776;15.892;2022-12-29T16:58:19;17.33;;;12.95;;
53650;SDS011;39552;45.776;15.892;2022-12-29T17:00:50;16.00;;;13.43;;
53650;SDS011;39552;45.776;15.892;2022-12-29T17:03:21;15.30;;;12.93;;
53650;SDS011;39552;45.776;15.892;2022-12-29T17:05:57;16.98;;;12.82;;
53650;SDS011;39552;45.776;15.892;2022-12-29T17:08:24;18.77;;;14.52;;
53650;SDS011;39552;45.776;15.892;2022-12-29T17:10:51;17.30;;;13.02;;
53650;SDS011;39552;45.776;15.892;2022-12-29T17:13:21;19.42;;;12.50;;
53650;SDS011;39552;45.776;15.892;2022-12-29T17:15:50;18.00;;;13.05;;
53650;SDS011;39552;45.776;15.892;2022-12-29T17:18:17;16.15;;;13.18;;
53650;SDS011;39552;45.776;15.892;2022-12-29T17:20:47;19.42;;;14.07;;
53650;SDS011;39552;45.776;15.892;2022-12-29T17:23:15;16.25;;;12.27;;
53650;SDS011;39552;45.776;15.892;2022-12-29T17:25:52;20.38;;;12.93;;
53650;SDS011;39552;45.776;15.892;2022-12-29T17:28:32;13.93;;;11.68;;
53650;SDS011;39552;45.776;15.892;2022-12-29T17:31:08;14.52;;;11.65;;
53650;SDS011;39552;45.776;15.892;2022-12-29T17:33:39;14.10;;;11.95;;
53650;SDS011;39552;45.776;15.892;2022-12-29T17:36:06;12.20;;;10.90;;
53650;SDS011;39552;45.776;15.892;2022-12-29T17:38:34;11.57;;;10.38;;
53650;SDS011;39552;45.776;15.892;2022-12-29T17:41:02;13.20;;;10.93;;
53650;SDS011;39552;45.776;15.892;2022-12-29T17:43:47;12.05;;;10.75;;
53650;SDS011;39552;45.776;15.892;2022-12-29T17:46:35;15.20;;;11.43;;
53650;SDS011;39552;45.776;15.892;2022-12-29T17:49:09;15.07;;;12.00;;
53650;SDS011;39552;45.776;15.892;2022-12-29T17:51:38;14.30;;;10.90;;
53650;SDS011;39552;45.776;15.892;2022-12-29T17:54:05;16.65;;;11.52;;
53650;SDS011;39552;45.776;15.892;2022-12-29T17:56:32;14.98;;;11.60;;
53650;SDS011;39552;45.776;15.892;2022-12-29T17:58:59;15.57;;;11.93;;
53650;SDS011;39552;45.776;15.892;2022-12-29T18:01:34;18.70;;;13.50;;
53650;SDS011;39552;45.776;15.892;2022-12-29T18:04:49;19.98;;;14.18;;
53650;SDS011;39552;45.776;15.892;2022-12-29T18:07:36;17.98;;;13.52;;
53650;SDS011;39552;45.776;15.892;2022-12-29T18:13:18;17.15;;;13.68;;
